Time;durP1;ratioP1;P1;durP2;ratioP2;P2;SDS_P1;SDS_P2;PMS_P1;PMS_P2;Temp;Humidity;BMP_temperature;BMP_pressure;BME280_temperature;BME280_humidity;BME280_pressure;Samples;Min_cycle;Max_cycle;Signal;HPM_P1;HPM_P2
2022/03/30 00:00:12;;;;;;;29.80;21.33;;;4.30;99.90;;;;;;5064627;28;20043;-74
2022/03/30 00:02:37;;;;;;;28.65;21.25;;;4.30;99.90;;;;;;5065920;28;20044;-75
2022/03/30 00:05:04;;;;;;;32.80;21.27;;;4.30;99.90;;;;;;5066157;28;20040;-74
2022/03/30 00:07:31;;;;;;;35.87;21.77;;;4.30;99.90;;;;;;5049333;28;20043;-74
2022/03/30 00:10:04;;;;;;;33.60;21.53;;;4.30;99.90;;;;;;5082269;28;20144;-74
2022/03/30 00:12:30;;;;;;;30.90;20.97;;;4.20;99.90;;;;;;5066079;28;20040;-74
2022/03/30 00:14:57;;;;;;;31.13;21.53;;;4.20;99.90;;;;;;5064307;28;20036;-74
2022/03/30 00:17:23;;;;;;;33.87;22.33;;;4.20;99.90;;;;;;5081732;28;20056;-74
2022/03/30 00:19:48;;;;;;;33.63;21.37;;;4.20;99.90;;;;;;5083076;28;20055;-74
2022/03/30 00:22:14;;;;;;;30.97;21.17;;;4.30;99.90;;;;;;5082237;28;20044;-74
2022/03/30 00:24:43;;;;;;;31.13;21.67;;;4.30;99.90;;;;;;5082460;28;20040;-75
2022/03/30 00:27:10;;;;;;;27.97;20.23;;;4.30;99.90;;;;;;5083516;28;20086;-72
2022/03/30 00:29:36;;;;;;;37.03;24.40;;;4.30;99.90;;;;;;5064824;28;20055;-73
2022/03/30 00:32:04;;;;;;;43.87;24.67;;;4.20;99.90;;;;;;5057948;28;20056;-73
2022/03/30 00:34:30;;;;;;;34.10;23.27;;;4.20;99.90;;;;;;5045613;28;20052;-70
2022/03/30 00:36:56;;;;;;;26.87;19.83;;;4.20;99.90;;;;;;5063371;28;20078;-71
2022/03/30 00:39:22;;;;;;;32.40;21.50;;;4.20;99.90;;;;;;5058153;28;20131;-72
2022/03/30 00:41:48;;;;;;;33.50;22.73;;;4.20;99.90;;;;;;5078228;28;20502;-72
2022/03/30 00:44:15;;;;;;;34.23;23.77;;;4.20;99.90;;;;;;5064992;28;20048;-72
2022/03/30 00:46:44;;;;;;;31.45;21.30;;;4.20;99.90;;;;;;5053424;28;20114;-72
2022/03/30 00:49:11;;;;;;;41.47;26.35;;;4.20;99.90;;;;;;5063704;28;20048;-72
2022/03/30 00:51:37;;;;;;;46.10;27.33;;;4.20;99.90;;;;;;5058843;28;20161;-72
2022/03/30 00:54:03;;;;;;;38.57;26.97;;;4.20;99.90;;;;;;5043566;28;20637;-72
2022/03/30 00:56:33;;;;;;;43.53;27.17;;;4.20;99.90;;;;;;5077320;28;20131;-72
2022/03/30 00:59:01;;;;;;;43.13;28.53;;;4.20;99.90;;;;;;5082297;28;20048;-72
2022/03/30 01:01:28;;;;;;;47.10;28.67;;;4.20;99.90;;;;;;5061750;28;20079;-72
2022/03/30 01:03:54;;;;;;;32.80;24.45;;;4.10;99.90;;;;;;5054683;28;20115;-72
2022/03/30 01:06:20;;;;;;;34.77;22.80;;;4.10;99.90;;;;;;5072312;28;20090;-72
2022/03/30 01:08:48;;;;;;;33.05;23.15;;;4.10;99.90;;;;;;5069402;28;20071;-72
2022/03/30 01:11:15;;;;;;;33.40;22.80;;;4.10;99.90;;;;;;5064250;28;20375;-72
2022/03/30 01:13:41;;;;;;;34.03;24.13;;;4.10;99.90;;;;;;5071204;28;20491;-72
2022/03/30 01:16:10;;;;;;;49.80;28.23;;;4.10;99.90;;;;;;5066665;28;20040;-72
2022/03/30 01:18:39;;;;;;;36.43;25.20;;;4.10;99.90;;;;;;5043547;28;20446;-72
2022/03/30 01:21:07;;;;;;;49.50;30.43;;;4.10;99.90;;;;;;5059345;28;20138;-73
2022/03/30 01:23:32;;;;;;;45.43;26.57;;;4.00;99.90;;;;;;5060461;28;20089;-73
2022/03/30 01:25:58;;;;;;;34.85;24.70;;;4.00;99.90;;;;;;5025221;28;20044;-73
2022/03/30 01:28:28;;;;;;;36.43;25.30;;;4.00;99.90;;;;;;5051367;28;20051;-73
2022/03/30 01:33:46;;;;;;;37.30;24.37;;;4.00;99.90;;;;;;5080525;28;20567;-72
2022/03/30 01:36:22;;;;;;;34.87;24.83;;;3.90;99.90;;;;;;5081487;28;20053;-72
2022/03/30 01:38:48;;;;;;;37.10;25.37;;;3.90;99.90;;;;;;5031293;28;20060;-72
2022/03/30 01:41:13;;;;;;;44.00;27.40;;;3.90;99.90;;;;;;5064478;28;20452;-72
2022/03/30 01:43:39;;;;;;;42.90;27.35;;;4.00;99.90;;;;;;5080782;28;20097;-72
2022/03/30 01:46:05;;;;;;;36.73;25.63;;;4.00;99.90;;;;;;5064647;28;20135;-72
2022/03/30 01:48:31;;;;;;;47.30;29.90;;;4.00;99.90;;;;;;5080890;28;20104;-72
2022/03/30 01:50:57;;;;;;;41.27;28.77;;;4.00;99.90;;;;;;5048378;28;20044;-72
2022/03/30 01:53:23;;;;;;;43.93;30.03;;;3.90;99.90;;;;;;5044615;28;20182;-72
2022/03/30 01:55:48;;;;;;;51.50;30.27;;;4.00;99.90;;;;;;5063537;28;20032;-72
2022/03/30 01:58:16;;;;;;;33.20;24.27;;;4.00;99.90;;;;;;5070008;28;20182;-73
2022/03/30 02:00:42;;;;;;;44.70;28.03;;;4.00;99.90;;;;;;5062341;28;20043;-72
2022/03/30 02:03:08;;;;;;;49.23;31.33;;;4.10;99.90;;;;;;5061361;28;20079;-73
2022/03/30 02:05:34;;;;;;;45.70;29.85;;;4.10;99.90;;;;;;5064501;28;20851;-73
2022/03/30 02:07:59;;;;;;;45.70;31.20;;;4.10;99.90;;;;;;5065643;28;20072;-72
2022/03/30 02:10:29;;;;;;;41.33;29.13;;;4.20;99.90;;;;;;5065543;28;20529;-73
2022/03/30 02:13:01;;;;;;;40.55;29.35;;;4.20;99.90;;;;;;5065963;28;20098;-72
2022/03/30 02:15:26;;;;;;;36.53;27.40;;;4.20;99.90;;;;;;5081994;28;20090;-72
2022/03/30 02:17:52;;;;;;;49.40;31.23;;;4.20;99.90;;;;;;5065348;28;20080;-72
2022/03/30 02:20:18;;;;;;;54.90;33.77;;;4.20;99.90;;;;;;5081712;28;20744;-72
2022/03/30 02:22:44;;;;;;;46.60;30.20;;;4.30;99.90;;;;;;5082530;28;20051;-72
2022/03/30 02:25:10;;;;;;;46.03;32.10;;;4.40;99.90;;;;;;5081034;28;20387;-72
2022/03/30 02:27:37;;;;;;;46.33;32.17;;;4.40;99.90;;;;;;5064846;28;20268;-72
2022/03/30 02:30:04;;;;;;;44.63;30.87;;;4.40;99.90;;;;;;5085499;28;20052;-72
2022/03/30 02:32:29;;;;;;;43.10;30.17;;;4.50;99.90;;;;;;5068113;28;20108;-72
2022/03/30 02:34:56;;;;;;;44.97;32.10;;;4.50;99.90;;;;;;5052581;28;20047;-73
2022/03/30 02:37:22;;;;;;;45.03;32.33;;;4.50;99.90;;;;;;5085105;28;20607;-73
2022/03/30 02:39:48;;;;;;;46.83;31.40;;;4.50;99.90;;;;;;5086045;28;20123;-72
2022/03/30 02:42:14;;;;;;;42.70;30.20;;;4.60;99.90;;;;;;5061278;28;20067;-72
2022/03/30 02:44:40;;;;;;;49.63;32.47;;;4.60;99.90;;;;;;5085320;28;20459;-73
2022/03/30 02:47:07;;;;;;;43.92;31.77;;;4.60;99.90;;;;;;5073107;28;20518;-73
2022/03/30 02:49:33;;;;;;;47.90;31.93;;;4.60;99.90;;;;;;5088831;28;20047;-73
2022/03/30 02:51:59;;;;;;;51.77;33.30;;;4.70;99.90;;;;;;5072963;28;20135;-72
2022/03/30 02:54:26;;;;;;;48.73;31.87;;;4.70;99.90;;;;;;5087780;28;20138;-73
2022/03/30 02:56:52;;;;;;;50.35;33.63;;;4.70;99.90;;;;;;5106937;28;20044;-72
2022/03/30 02:59:18;;;;;;;47.05;31.30;;;4.70;99.90;;;;;;5104208;28;20126;-72
2022/03/30 03:01:44;;;;;;;44.53;31.50;;;4.70;99.90;;;;;;5070804;28;20122;-73
2022/03/30 03:04:10;;;;;;;50.67;33.23;;;4.80;99.90;;;;;;5071977;28;20079;-71
2022/03/30 03:06:36;;;;;;;50.93;32.67;;;4.80;99.90;;;;;;5055286;28;20084;-71
2022/03/30 03:09:03;;;;;;;50.30;33.93;;;4.80;99.90;;;;;;5072360;28;20051;-72
2022/03/30 03:11:29;;;;;;;46.27;32.37;;;4.80;99.90;;;;;;5071101;28;20439;-72
2022/03/30 03:13:56;;;;;;;45.40;32.17;;;4.80;99.90;;;;;;5072107;28;20059;-72
2022/03/30 03:16:28;;;;;;;50.60;32.07;;;4.80;99.90;;;;;;5088192;28;20043;-72
2022/03/30 03:18:54;;;;;;;48.08;30.98;;;4.80;99.90;;;;;;5068950;28;20112;-72
2022/03/30 03:21:20;;;;;;;46.53;33.83;;;4.80;99.90;;;;;;5085708;28;20044;-73
2022/03/30 03:23:46;;;;;;;43.13;31.50;;;4.80;99.90;;;;;;5085421;28;20071;-72
2022/03/30 03:26:11;;;;;;;52.25;33.50;;;4.90;99.90;;;;;;5088817;28;20047;-72
2022/03/30 03:28:37;;;;;;;49.33;31.63;;;4.90;99.90;;;;;;5105971;27;20054;-72
2022/03/30 03:31:04;;;;;;;45.30;29.30;;;4.90;99.90;;;;;;5089214;28;20528;-72
2022/03/30 03:33:31;;;;;;;45.87;31.47;;;4.90;99.90;;;;;;5072199;28;20077;-72
2022/03/30 03:35:57;;;;;;;47.67;30.93;;;4.90;99.90;;;;;;5056037;28;20124;-72
2022/03/30 03:38:23;;;;;;;46.25;30.77;;;4.90;99.90;;;;;;5072267;28;20059;-72
2022/03/30 03:40:49;;;;;;;48.90;31.40;;;4.90;99.90;;;;;;5088996;28;20422;-72
2022/03/30 03:43:15;;;;;;;46.43;31.33;;;4.90;99.90;;;;;;5071629;28;20080;-72
2022/03/30 03:45:41;;;;;;;50.53;33.03;;;4.80;99.90;;;;;;5087751;28;20097;-72
2022/03/30 03:48:07;;;;;;;49.97;31.90;;;4.90;99.90;;;;;;5072017;28;20090;-72
2022/03/30 03:50:33;;;;;;;51.25;32.15;;;4.90;99.90;;;;;;5087681;28;20060;-72
2022/03/30 03:52:59;;;;;;;44.03;29.10;;;4.90;99.90;;;;;;5071316;28;20051;-72
2022/03/30 03:55:24;;;;;;;47.47;30.70;;;4.90;99.90;;;;;;5050455;28;20044;-72
2022/03/30 03:57:53;;;;;;;50.83;31.30;;;4.90;99.90;;;;;;5050400;28;20134;-72
2022/03/30 04:00:19;;;;;;;46.00;30.13;;;4.90;99.90;;;;;;5069308;28;20585;-73
2022/03/30 04:02:45;;;;;;;46.10;29.20;;;4.90;99.90;;;;;;5067095;28;20052;-72
2022/03/30 04:05:13;;;;;;;47.35;28.83;;;4.90;99.90;;;;;;5070833;28;20059;-72
2022/03/30 04:07:40;;;;;;;45.45;27.42;;;4.90;99.90;;;;;;5087123;28;20543;-72
2022/03/30 04:10:07;;;;;;;44.60;27.67;;;5.00;99.90;;;;;;5071093;28;20706;-72
2022/03/30 04:12:33;;;;;;;42.27;27.37;;;4.90;99.90;;;;;;5069453;28;20104;-72
2022/03/30 04:14:59;;;;;;;43.72;28.35;;;5.00;99.90;;;;;;5087647;28;20043;-72
2022/03/30 04:17:26;;;;;;;40.20;27.88;;;5.00;99.90;;;;;;5069574;28;20040;-73
2022/03/30 04:19:52;;;;;;;42.88;27.15;;;5.00;99.90;;;;;;5087640;28;20051;-72
2022/03/30 04:22:17;;;;;;;41.88;27.52;;;5.00;99.90;;;;;;5122003;27;20043;-72
2022/03/30 04:24:43;;;;;;;39.53;27.50;;;5.00;99.90;;;;;;5120056;27;20099;-71
2022/03/30 04:27:09;;;;;;;41.40;27.00;;;5.00;99.90;;;;;;5070898;28;20123;-71
2022/03/30 04:29:35;;;;;;;43.17;27.73;;;5.00;99.90;;;;;;5070242;28;20067;-72
2022/03/30 04:32:00;;;;;;;41.47;27.67;;;5.00;99.90;;;;;;5070245;28;20043;-72
2022/03/30 04:34:26;;;;;;;42.87;28.47;;;5.10;99.90;;;;;;5069976;28;20048;-72
2022/03/30 04:36:52;;;;;;;42.08;26.58;;;5.10;99.90;;;;;;5070690;28;20043;-72
2022/03/30 04:39:18;;;;;;;43.73;27.40;;;5.10;99.90;;;;;;5087619;28;20043;-72
2022/03/30 04:41:44;;;;;;;38.20;26.60;;;5.10;99.90;;;;;;5053395;28;20051;-73
2022/03/30 04:44:09;;;;;;;47.47;28.77;;;5.10;99.90;;;;;;5087128;28;20043;-72
2022/03/30 04:46:35;;;;;;;38.30;26.27;;;5.10;99.90;;;;;;5086164;28;20115;-73
2022/03/30 04:49:01;;;;;;;46.05;29.38;;;5.10;99.90;;;;;;5070332;28;20043;-73
2022/03/30 04:51:29;;;;;;;39.20;25.87;;;5.10;99.90;;;;;;5069925;28;20087;-73
2022/03/30 04:53:56;;;;;;;38.77;25.83;;;5.20;99.90;;;;;;5068854;28;20458;-73
2022/03/30 04:56:21;;;;;;;34.00;23.37;;;5.20;99.90;;;;;;5049858;28;20124;-72
2022/03/30 04:58:50;;;;;;;36.78;25.10;;;5.20;99.90;;;;;;5077866;28;20514;-72
2022/03/30 05:01:15;;;;;;;37.80;23.23;;;5.20;99.90;;;;;;5085250;28;20448;-73
2022/03/30 05:03:41;;;;;;;34.92;23.33;;;5.30;99.90;;;;;;5047631;28;20047;-72
2022/03/30 05:06:07;;;;;;;33.65;23.20;;;5.20;99.90;;;;;;5081366;28;20075;-72
2022/03/30 05:08:32;;;;;;;31.42;21.95;;;5.20;99.90;;;;;;5094802;28;20070;-73
2022/03/30 05:10:58;;;;;;;32.60;21.30;;;5.30;99.90;;;;;;5078460;28;20604;-73
2022/03/30 05:13:24;;;;;;;30.05;19.00;;;5.30;99.90;;;;;;5048935;28;20514;-73
2022/03/30 05:15:51;;;;;;;26.35;16.83;;;5.30;99.90;;;;;;5068576;28;20118;-73
2022/03/30 05:18:17;;;;;;;15.10;10.65;;;5.30;99.90;;;;;;5051799;28;20035;-73
2022/03/30 05:20:46;;;;;;;7.45;4.70;;;5.40;99.90;;;;;;5067431;28;20489;-73
2022/03/30 05:23:12;;;;;;;5.97;3.45;;;5.50;99.90;;;;;;5083876;28;20134;-72
2022/03/30 05:25:42;;;;;;;6.25;2.83;;;5.40;99.90;;;;;;5067418;28;20454;-71
2022/03/30 05:28:08;;;;;;;4.85;1.70;;;5.50;99.90;;;;;;5083257;28;20055;-72
2022/03/30 05:30:34;;;;;;;5.25;2.13;;;5.50;99.90;;;;;;5081038;28;20560;-72
2022/03/30 05:33:01;;;;;;;2.30;1.40;;;5.50;99.90;;;;;;5063914;28;20035;-71
2022/03/30 05:35:26;;;;;;;2.22;1.20;;;5.50;99.90;;;;;;5061585;28;20149;-72
2022/03/30 05:37:52;;;;;;;3.35;1.10;;;5.50;99.90;;;;;;5045817;28;20455;-71
2022/03/30 05:40:18;;;;;;;2.80;1.60;;;5.50;99.90;;;;;;5044764;28;20348;-71
2022/03/30 05:42:44;;;;;;;1.58;1.00;;;5.50;99.90;;;;;;5076877;28;20162;-71
2022/03/30 05:45:10;;;;;;;2.50;1.30;;;5.50;99.90;;;;;;5064357;28;20406;-71
2022/03/30 05:47:37;;;;;;;2.97;1.20;;;5.50;99.90;;;;;;5073298;28;20041;-70
2022/03/30 05:50:03;;;;;;;2.47;1.20;;;5.50;99.90;;;;;;5058407;28;20289;-69
2022/03/30 05:52:29;;;;;;;3.10;1.50;;;5.50;99.90;;;;;;5072551;28;20056;-69
2022/03/30 05:54:55;;;;;;;2.63;1.30;;;5.40;99.90;;;;;;5036639;28;20390;-68
2022/03/30 05:57:23;;;;;;;4.05;1.67;;;5.40;99.90;;;;;;5057996;28;20052;-68
2022/03/30 05:59:49;;;;;;;4.63;2.35;;;5.30;99.90;;;;;;5062313;28;20055;-69
2022/03/30 06:02:16;;;;;;;3.03;2.50;;;5.40;99.90;;;;;;5076025;28;20047;-68
2022/03/30 06:04:42;;;;;;;4.30;2.50;;;5.40;99.90;;;;;;5075202;28;20044;-67
2022/03/30 06:07:09;;;;;;;4.40;2.40;;;5.30;99.90;;;;;;5053915;28;20398;-67
2022/03/30 06:09:35;;;;;;;5.20;2.67;;;5.30;99.90;;;;;;5061619;28;20044;-68
2022/03/30 06:12:03;;;;;;;4.55;2.55;;;5.30;99.90;;;;;;5080665;28;20044;-68
2022/03/30 06:14:30;;;;;;;3.63;2.10;;;5.30;99.90;;;;;;5080000;28;20128;-67
2022/03/30 06:16:58;;;;;;;4.40;2.45;;;5.30;99.90;;;;;;5063203;28;20071;-67
2022/03/30 06:19:24;;;;;;;3.25;2.33;;;5.30;99.90;;;;;;5078191;28;20051;-67
2022/03/30 06:21:51;;;;;;;4.38;2.22;;;5.30;99.90;;;;;;5083495;28;20048;-68
2022/03/30 06:24:16;;;;;;;4.15;2.35;;;5.30;99.90;;;;;;5047007;28;20052;-68
2022/03/30 06:26:43;;;;;;;4.03;2.30;;;5.30;99.90;;;;;;5075756;28;20581;-67
2022/03/30 06:29:09;;;;;;;4.63;2.58;;;5.30;99.90;;;;;;5067492;28;20505;-67
2022/03/30 06:31:35;;;;;;;7.18;2.60;;;5.30;99.90;;;;;;5081866;28;20632;-68
2022/03/30 06:34:02;;;;;;;5.47;2.70;;;5.40;99.90;;;;;;5049507;28;20075;-68
2022/03/30 06:36:29;;;;;;;3.35;2.38;;;5.30;99.90;;;;;;5063565;28;20048;-69
2022/03/30 06:38:56;;;;;;;4.20;2.33;;;5.40;99.90;;;;;;5084783;28;20374;-68
2022/03/30 06:41:24;;;;;;;4.65;2.58;;;5.40;99.90;;;;;;5067651;28;20067;-70
2022/03/30 06:43:50;;;;;;;3.20;2.30;;;5.50;99.90;;;;;;5082659;28;20490;-70
2022/03/30 06:46:18;;;;;;;4.70;2.38;;;5.50;99.90;;;;;;5085216;28;20113;-70
2022/03/30 06:48:47;;;;;;;5.20;2.88;;;5.50;99.90;;;;;;5083985;28;20480;-70
2022/03/30 06:51:14;;;;;;;3.63;2.53;;;5.60;99.90;;;;;;5068343;28;20047;-70
2022/03/30 06:53:41;;;;;;;5.63;2.70;;;5.60;99.90;;;;;;5066614;28;20977;-70
2022/03/30 06:56:08;;;;;;;3.55;2.58;;;5.60;99.90;;;;;;5050931;28;20048;-71
2022/03/30 06:58:34;;;;;;;4.15;2.90;;;5.60;99.90;;;;;;5083587;28;20151;-75
2022/03/30 07:01:00;;;;;;;7.80;2.97;;;5.60;99.90;;;;;;5049349;28;20130;-75
2022/03/30 07:03:29;;;;;;;5.10;2.53;;;5.60;99.90;;;;;;5066849;28;20459;-75
2022/03/30 07:05:57;;;;;;;4.72;2.55;;;5.70;99.90;;;;;;5083060;28;20406;-75
2022/03/30 07:11:07;;;;;;;4.72;3.60;;;5.70;99.90;;;;;;5084030;28;20149;-75
2022/03/30 07:13:34;;;;;;;4.80;3.10;;;5.70;99.90;;;;;;5066179;28;20040;-75
2022/03/30 07:16:00;;;;;;;3.95;2.90;;;5.80;99.90;;;;;;5066940;28;20132;-75
2022/03/30 07:18:27;;;;;;;4.28;2.65;;;5.80;99.90;;;;;;5065115;28;20040;-75
2022/03/30 07:20:53;;;;;;;4.18;2.65;;;5.80;99.90;;;;;;5098568;28;20071;-74
2022/03/30 07:23:20;;;;;;;6.32;3.15;;;5.80;99.90;;;;;;5065862;28;20082;-75
2022/03/30 07:25:46;;;;;;;4.05;2.90;;;5.90;99.90;;;;;;5082228;28;20073;-75
2022/03/30 07:28:15;;;;;;;4.10;2.53;;;5.90;99.90;;;;;;5083224;28;20168;-76
2022/03/30 07:30:43;;;;;;;6.38;2.70;;;5.80;99.90;;;;;;5065261;28;20546;-75
2022/03/30 07:33:09;;;;;;;6.20;2.80;;;5.90;99.90;;;;;;5065671;28;20781;-75
2022/03/30 07:35:35;;;;;;;3.38;2.45;;;6.00;99.90;;;;;;5065314;28;20048;-75
2022/03/30 07:38:01;;;;;;;4.43;2.70;;;6.00;99.90;;;;;;5031040;28;20094;-75
2022/03/30 07:40:29;;;;;;;5.78;3.25;;;6.20;99.90;;;;;;5065235;28;20334;-75
2022/03/30 07:42:56;;;;;;;5.63;3.17;;;6.30;99.90;;;;;;5082285;28;20044;-71
2022/03/30 07:45:23;;;;;;;5.78;2.95;;;6.40;99.90;;;;;;5082742;28;20047;-70
2022/03/30 07:47:49;;;;;;;5.18;2.80;;;6.50;99.90;;;;;;5081685;28;20044;-70
2022/03/30 07:50:15;;;;;;;5.43;2.70;;;6.50;99.90;;;;;;5081886;28;20328;-70
2022/03/30 07:52:42;;;;;;;5.53;2.63;;;6.60;99.90;;;;;;5081539;28;20040;-71
2022/03/30 07:55:09;;;;;;;5.57;2.75;;;6.50;99.90;;;;;;5065179;28;20669;-70
2022/03/30 07:57:37;;;;;;;5.20;2.33;;;6.60;99.90;;;;;;5064956;28;20087;-72
2022/03/30 08:00:06;;;;;;;5.05;3.03;;;6.60;99.90;;;;;;5081151;28;20051;-71
2022/03/30 08:02:32;;;;;;;5.60;2.90;;;6.60;99.90;;;;;;5066402;28;20040;-70
2022/03/30 08:04:58;;;;;;;6.15;3.45;;;6.60;99.90;;;;;;5047624;28;20058;-71
2022/03/30 08:07:26;;;;;;;6.22;3.28;;;6.60;99.90;;;;;;5065245;28;20044;-71
2022/03/30 08:09:52;;;;;;;6.50;3.45;;;6.50;99.90;;;;;;5049382;28;20062;-71
2022/03/30 08:12:20;;;;;;;6.78;3.28;;;6.60;99.90;;;;;;5082083;28;20052;-71
2022/03/30 08:14:47;;;;;;;7.90;5.03;;;6.60;99.90;;;;;;5049387;28;20109;-71
2022/03/30 08:17:13;;;;;;;8.13;5.72;;;6.60;99.90;;;;;;5081240;28;20517;-71
2022/03/30 08:19:39;;;;;;;8.45;5.53;;;6.70;99.90;;;;;;5047643;28;20650;-71
2022/03/30 08:24:50;;;;;;;9.55;6.00;;;6.70;99.90;;;;;;5081086;28;20052;-72
2022/03/30 08:27:22;;;;;;;9.13;5.97;;;6.80;99.90;;;;;;5081475;28;20048;-71
2022/03/30 08:29:49;;;;;;;9.88;6.60;;;6.80;99.90;;;;;;5019225;28;1297863;-72
2022/03/30 08:32:17;;;;;;;7.63;6.85;;;6.80;99.90;;;;;;5084496;28;20105;-71
2022/03/30 08:34:43;;;;;;;7.32;6.38;;;6.80;99.90;;;;;;5067290;28;20112;-71
2022/03/30 08:37:10;;;;;;;10.70;6.13;;;6.90;99.90;;;;;;5086017;28;20484;-72
2022/03/30 08:39:36;;;;;;;8.38;5.35;;;7.00;99.90;;;;;;5068144;28;20054;-71
2022/03/30 08:42:04;;;;;;;6.72;4.50;;;7.00;99.90;;;;;;5051727;28;20100;-72
2022/03/30 08:44:32;;;;;;;8.85;5.95;;;7.00;99.90;;;;;;5084046;28;20142;-70
2022/03/30 08:46:58;;;;;;;9.15;5.75;;;7.00;99.90;;;;;;5084381;28;20044;-70
2022/03/30 08:49:33;;;;;;;8.02;5.40;;;7.10;99.90;;;;;;5085270;28;20460;-71
2022/03/30 08:52:00;;;;;;;6.75;4.70;;;7.10;99.90;;;;;;5068377;28;20517;-71
2022/03/30 08:54:26;;;;;;;6.00;4.38;;;7.20;99.90;;;;;;5084243;28;20047;-72
2022/03/30 08:56:52;;;;;;;5.05;2.90;;;7.20;99.90;;;;;;5084336;28;20180;-70
2022/03/30 08:59:21;;;;;;;6.40;3.25;;;7.20;99.90;;;;;;5083635;28;20122;-71
2022/03/30 09:01:47;;;;;;;7.28;3.40;;;7.20;99.90;;;;;;5067600;28;20473;-70
2022/03/30 09:04:15;;;;;;;6.55;2.95;;;7.30;99.90;;;;;;5083565;28;20047;-71
2022/03/30 09:06:44;;;;;;;5.72;2.50;;;7.30;99.90;;;;;;5083403;28;20031;-70
2022/03/30 09:09:11;;;;;;;5.40;2.50;;;7.30;99.90;;;;;;5085004;28;20164;-71
2022/03/30 09:11:53;;;;;;;5.70;2.67;;;7.40;99.90;;;;;;5067842;28;20055;-70
2022/03/30 09:14:19;;;;;;;7.53;3.83;;;7.50;99.90;;;;;;5067816;28;20121;-70
2022/03/30 09:16:48;;;;;;;6.18;4.40;;;7.50;99.90;;;;;;5083054;28;21288;-71
2022/03/30 09:19:17;;;;;;;8.13;4.97;;;7.60;99.90;;;;;;5084584;28;20043;-71
2022/03/30 09:21:52;;;;;;;7.57;5.97;;;7.60;99.90;;;;;;5067475;28;20031;-71
2022/03/30 09:24:30;;;;;;;7.75;5.80;;;7.60;99.90;;;;;;5085051;28;20178;-70
2022/03/30 09:27:00;;;;;;;7.90;5.95;;;7.50;99.90;;;;;;5085010;28;20036;-70
2022/03/30 09:29:31;;;;;;;9.68;6.57;;;7.40;99.90;;;;;;5083970;28;20099;-71
2022/03/30 09:32:02;;;;;;;6.90;5.22;;;7.30;99.90;;;;;;5068018;28;20066;-70
2022/03/30 09:34:35;;;;;;;6.95;4.50;;;7.30;99.90;;;;;;5083093;28;20077;-71
2022/03/30 09:37:02;;;;;;;6.25;2.72;;;7.30;99.90;;;;;;5083555;28;20048;-71
2022/03/30 09:39:28;;;;;;;7.22;2.50;;;7.10;99.90;;;;;;5068192;28;20425;-72
2022/03/30 09:41:56;;;;;;;8.25;2.83;;;7.00;99.90;;;;;;5068281;28;20134;-73
2022/03/30 09:44:22;;;;;;;6.43;2.03;;;6.80;99.90;;;;;;5067551;28;20036;-71
2022/03/30 09:47:05;;;;;;;4.53;2.03;;;6.70;99.90;;;;;;5067152;28;20565;-71
2022/03/30 09:49:41;;;;;;;2.53;1.23;;;6.80;99.90;;;;;;5083521;28;20676;-72
2022/03/30 09:52:11;;;;;;;5.03;2.07;;;6.80;99.90;;;;;;5084863;28;20478;-70
2022/03/30 09:54:43;;;;;;;4.55;1.58;;;6.80;99.90;;;;;;5084061;28;20276;-69
2022/03/30 09:57:15;;;;;;;5.78;1.70;;;6.80;99.90;;;;;;5116381;27;22284;-70
2022/03/30 10:00:08;;;;;;;5.70;1.92;;;6.90;99.90;;;;;;5066571;28;20083;-70
2022/03/30 10:02:51;;;;;;;5.80;2.03;;;7.10;99.90;;;;;;5066780;28;20053;-70
2022/03/30 10:05:19;;;;;;;10.52;2.17;;;7.10;99.90;;;;;;5082906;28;20485;-71
2022/03/30 10:07:45;;;;;;;4.47;1.80;;;7.20;99.90;;;;;;5083864;28;20139;-71
2022/03/30 10:10:14;;;;;;;5.32;2.05;;;7.20;99.90;;;;;;5050387;28;20031;-72
2022/03/30 10:12:40;;;;;;;5.15;1.90;;;7.40;99.90;;;;;;5083328;28;20032;-72
2022/03/30 10:15:08;;;;;;;6.18;2.10;;;7.50;99.90;;;;;;5084828;28;20118;-71
2022/03/30 10:17:34;;;;;;;5.18;2.00;;;7.60;99.90;;;;;;5065281;28;20095;-72
2022/03/30 10:20:02;;;;;;;4.00;1.90;;;7.60;99.90;;;;;;5067334;28;20050;-72
2022/03/30 10:22:34;;;;;;;4.88;1.92;;;7.70;99.90;;;;;;5083238;28;20043;-71
2022/03/30 10:25:18;;;;;;;5.13;2.03;;;7.60;99.90;;;;;;5083827;28;20640;-71
2022/03/30 10:27:52;;;;;;;4.82;1.80;;;7.80;99.90;;;;;;5098365;28;20414;-72
2022/03/30 10:30:26;;;;;;;3.78;1.50;;;7.80;99.90;;;;;;5064783;28;20391;-70
2022/03/30 10:33:01;;;;;;;5.18;1.60;;;7.90;99.90;;;;;;5083263;28;20310;-69
2022/03/30 10:35:47;;;;;;;3.92;1.70;;;8.00;99.90;;;;;;5065729;28;20127;-72
2022/03/30 10:38:15;;;;;;;3.50;1.42;;;8.10;99.90;;;;;;5083686;28;20149;-72
2022/03/30 10:40:42;;;;;;;5.82;1.73;;;8.10;99.90;;;;;;5082924;28;20139;-72
2022/03/30 10:43:12;;;;;;;4.57;1.70;;;8.10;99.90;;;;;;5083882;28;20513;-72
2022/03/30 10:45:59;;;;;;;4.30;1.70;;;8.10;99.90;;;;;;5049671;28;20088;-71
2022/03/30 10:48:28;;;;;;;5.25;1.80;;;8.10;99.90;;;;;;5082879;28;20082;-72
2022/03/30 10:51:01;;;;;;;5.75;1.92;;;8.10;99.90;;;;;;5067054;28;20108;-72
2022/03/30 10:53:33;;;;;;;7.22;2.00;;;8.00;99.90;;;;;;5083476;28;20859;-72
2022/03/30 10:56:08;;;;;;;6.45;1.70;;;8.00;99.90;;;;;;5084034;28;20050;-71
2022/03/30 10:59:00;;;;;;;5.57;1.98;;;7.80;99.90;;;;;;5083040;28;20055;-72
2022/03/30 11:01:31;;;;;;;5.47;2.38;;;7.70;99.90;;;;;;5075156;28;20359;-72
2022/03/30 11:04:18;;;;;;;4.53;1.98;;;7.70;99.90;;;;;;5066308;28;20048;-71
2022/03/30 11:07:05;;;;;;;4.60;1.83;;;7.50;99.90;;;;;;5085672;28;20047;-71
2022/03/30 11:09:33;;;;;;;4.43;1.77;;;7.40;99.90;;;;;;5074995;28;20413;-71
2022/03/30 11:12:00;;;;;;;5.10;1.98;;;7.30;99.90;;;;;;5087272;28;20035;-69
2022/03/30 11:14:34;;;;;;;7.53;1.88;;;7.40;99.90;;;;;;5086910;28;20516;-70
2022/03/30 11:17:14;;;;;;;5.22;1.77;;;7.50;99.90;;;;;;5087020;28;20215;-70
2022/03/30 11:19:56;;;;;;;5.97;2.30;;;7.60;99.90;;;;;;5087416;28;20055;-71
2022/03/30 11:22:26;;;;;;;5.07;1.75;;;7.60;99.90;;;;;;5087656;28;20040;-70
2022/03/30 11:25:13;;;;;;;;;;;7.60;99.90;;;;;;5087999;28;20129;-70
2022/03/30 11:27:40;;;;;;;5.47;1.70;;;7.70;99.90;;;;;;5085296;28;19977;-71
2022/03/30 11:30:15;;;;;;;4.82;1.63;;;7.70;99.90;;;;;;5085808;28;20270;-71
2022/03/30 11:32:43;;;;;;;4.03;1.90;;;7.80;99.90;;;;;;5086113;28;20143;-70
2022/03/30 11:35:17;;;;;;;6.50;1.83;;;7.80;99.90;;;;;;5083598;28;20501;-71
2022/03/30 11:37:49;;;;;;;6.38;2.30;;;7.80;99.90;;;;;;5085595;28;20097;-71
2022/03/30 11:40:16;;;;;;;4.28;1.95;;;7.90;99.90;;;;;;5068703;28;20436;-70
2022/03/30 11:43:04;;;;;;;6.28;2.50;;;8.00;99.90;;;;;;5085805;28;20056;-71
2022/03/30 11:45:32;;;;;;;5.63;1.80;;;8.10;99.90;;;;;;5068479;28;20604;-71
2022/03/30 11:48:02;;;;;;;4.97;1.88;;;8.10;99.90;;;;;;5086651;28;20122;-70
2022/03/30 11:50:32;;;;;;;4.80;1.80;;;8.20;99.90;;;;;;5085186;28;20619;-70
2022/03/30 11:53:08;;;;;;;5.40;2.00;;;8.30;99.90;;;;;;5084922;28;20553;-71
2022/03/30 11:55:38;;;;;;;6.22;2.00;;;8.20;99.90;;;;;;5085435;28;20482;-71
2022/03/30 11:58:05;;;;;;;5.35;1.77;;;8.30;99.90;;;;;;5086503;28;20077;-71
2022/03/30 12:00:32;;;;;;;5.65;1.60;;;8.30;99.90;;;;;;5084295;28;20055;-71
2022/03/30 12:03:00;;;;;;;4.22;1.92;;;8.30;99.90;;;;;;5086889;28;20509;-71
2022/03/30 12:05:26;;;;;;;5.43;1.92;;;8.30;99.90;;;;;;5067656;28;20050;-71
2022/03/30 12:07:58;;;;;;;4.45;1.80;;;8.30;99.90;;;;;;5085627;28;20063;-71
2022/03/30 12:10:31;;;;;;;4.30;1.70;;;8.40;99.90;;;;;;5069427;28;20138;-71
2022/03/30 12:12:58;;;;;;;6.07;1.98;;;8.50;99.90;;;;;;5068955;28;20486;-71
2022/03/30 12:15:24;;;;;;;5.07;2.00;;;8.40;99.90;;;;;;5086176;28;20450;-71
2022/03/30 12:17:56;;;;;;;4.57;1.77;;;8.20;99.90;;;;;;5082767;28;20423;-71
2022/03/30 12:20:24;;;;;;;5.00;2.20;;;8.00;99.90;;;;;;5069070;28;20089;-72
2022/03/30 12:22:58;;;;;;;6.00;2.00;;;7.90;99.90;;;;;;5068356;28;20407;-71
2022/03/30 12:25:30;;;;;;;4.30;1.83;;;7.80;99.90;;;;;;5085998;28;20084;-71
2022/03/30 12:28:00;;;;;;;5.68;1.60;;;7.70;99.90;;;;;;5085440;28;20379;-71
2022/03/30 12:30:30;;;;;;;3.92;1.83;;;7.70;99.90;;;;;;5068828;28;20078;-76
2022/03/30 12:32:56;;;;;;;3.72;1.73;;;7.70;99.90;;;;;;5085744;28;20036;-80
2022/03/30 12:35:24;;;;;;;6.30;2.08;;;7.70;99.90;;;;;;5067981;28;20108;-78
2022/03/30 12:38:07;;;;;;;5.00;2.22;;;7.60;99.90;;;;;;5067955;28;20587;-78
2022/03/30 12:40:39;;;;;;;6.30;1.85;;;7.50;99.90;;;;;;5084545;28;20084;-77
2022/03/30 12:43:05;;;;;;;3.28;1.63;;;7.40;99.90;;;;;;5086287;28;20129;-79
2022/03/30 12:45:32;;;;;;;3.63;1.58;;;7.50;99.90;;;;;;5085499;28;20448;-78
2022/03/30 12:48:01;;;;;;;3.67;2.00;;;7.50;99.90;;;;;;5070251;28;20512;-76
2022/03/30 12:50:35;;;;;;;4.05;1.60;;;7.60;99.90;;;;;;5085322;28;20040;-77
2022/03/30 12:53:16;;;;;;;5.78;1.90;;;7.70;99.90;;;;;;5069514;28;20399;-77
2022/03/30 12:55:51;;;;;;;4.75;1.90;;;7.80;99.90;;;;;;5085274;28;20062;-78
2022/03/30 12:58:24;;;;;;;4.47;2.10;;;7.90;99.90;;;;;;5085993;28;20452;-79
2022/03/30 13:00:55;;;;;;;4.03;1.60;;;8.00;99.90;;;;;;5068433;28;20067;-78